Luckey, Ohio
Current Conditions -  °F | °C
As of 7:53 AM on Tuesday 21 Oct 2014 (Local Time) from KTDZ Reporting Station
Overcast Overcast  
Wind Chill: 45°   Ceiling: 1700
Heat Index: 49°   Visibility: 10mi
Dew Point: 43°   Wind: 9mph
Humidity: 80%   Direction: 310°NW
Pressure: 29.96"   Gusts: NA
Location:  41.45°N, 83.49°W
Report Text: KTDZ 211153Z AUTO 31008KT 10SM BKN017 OVC025 09/06 A2996 RMK AO2 SLP145 70007 T00940061 10100 20094 51017 TSNO
Loading
Personal Weather Stations






























Interactive Weather Map
Tropical Storm Tracking
New forecast layout! Learn more

10-Day Weather Forecast

Advertisements
Track Severe Weather on mobile